Time;durP1;ratioP1;P1;durP2;ratioP2;P2;SDS_P1;SDS_P2;PMS_P1;PMS_P2;Temp;Humidity;BMP_temperature;BMP_pressure;BME280_temperature;BME280_humidity;BME280_pressure;Samples;Min_cycle;Max_cycle;Signal;HPM_P1;HPM_P2
2022/03/20 00:01:00;;;;;;;;;;;2.40;99.90;;;;;;5114333;28;19923;-75
2022/03/20 00:03:27;;;;;;;;;;;2.40;99.90;;;;;;5102738;28;19963;-75
2022/03/20 00:05:54;;;;;;;;;;;2.40;99.90;;;;;;5105262;28;19925;-76
2022/03/20 00:08:20;;;;;;;;;;;2.40;99.90;;;;;;5093703;28;20009;-76
2022/03/20 00:10:48;;;;;;;;;;;2.40;99.90;;;;;;5093769;28;19986;-76
2022/03/20 00:13:16;;;;;;;;;;;2.40;99.90;;;;;;5093993;28;19968;-76
2022/03/20 00:15:44;;;;;;;;;;;2.40;99.90;;;;;;5090169;28;19931;-76
2022/03/20 00:18:15;;;;;;;;;;;2.30;99.90;;;;;;5093145;28;19932;-75
2022/03/20 00:20:44;;;;;;;;;;;2.30;99.90;;;;;;5093728;28;19935;-76
2022/03/20 00:23:12;;;;;;;;;;;2.30;99.90;;;;;;5104182;27;19923;-76
2022/03/20 00:25:39;;;;;;;;;;;2.20;99.90;;;;;;5104475;28;19966;-76
2022/03/20 00:28:06;;;;;;;;;;;2.30;99.90;;;;;;5097761;28;19924;-76
2022/03/20 00:30:35;;;;;;;;;;;2.20;99.90;;;;;;5112974;28;20340;-76
2022/03/20 00:33:02;;;;;;;;;;;2.20;99.90;;;;;;5096288;28;19934;-76
2022/03/20 00:35:29;;;;;;;;;;;2.20;99.90;;;;;;5077979;28;20023;-76
2022/03/20 00:38:02;;;;;;;;;;;2.20;99.90;;;;;;5113552;28;19927;-76
2022/03/20 00:40:29;;;;;;;;;;;2.30;99.90;;;;;;5103710;28;19930;-76
2022/03/20 00:42:55;;;;;;;;;;;2.40;99.90;;;;;;5100911;28;19963;-76
2022/03/20 00:45:22;;;;;;;;;;;2.40;99.90;;;;;;5092464;28;19928;-76
2022/03/20 00:47:49;;;;;;;;;;;2.40;99.90;;;;;;5091796;28;20007;-76
2022/03/20 00:50:16;;;;;;;;;;;2.40;99.90;;;;;;5105724;28;20341;-76
2022/03/20 00:52:43;;;;;;;;;;;2.30;99.90;;;;;;5094040;28;20014;-76
2022/03/20 00:55:13;;;;;;;;;;;2.30;99.90;;;;;;5093625;28;20015;-76
2022/03/20 00:57:39;;;;;;;;;;;2.20;99.90;;;;;;5109165;28;19962;-76
2022/03/20 01:00:06;;;;;;;;;;;2.20;99.90;;;;;;5110299;28;19966;-77
2022/03/20 01:02:37;;;;;;;;;;;2.10;99.90;;;;;;5100954;28;19968;-76
2022/03/20 01:05:04;;;;;;;;;;;2.10;99.90;;;;;;5091626;28;20431;-77
2022/03/20 01:07:31;;;;;;;;;;;2.00;99.90;;;;;;5099269;28;20015;-76
2022/03/20 01:09:58;;;;;;;;;;;1.90;99.90;;;;;;5100088;28;19966;-76
2022/03/20 01:12:24;;;;;;;;;;;1.80;99.90;;;;;;5074813;28;20309;-76
2022/03/20 01:14:53;;;;;;;;;;;1.80;99.90;;;;;;5106785;28;19928;-76
2022/03/20 01:17:20;;;;;;;;;;;1.70;99.90;;;;;;5086753;28;19974;-76
2022/03/20 01:19:47;;;;;;;;;;;1.70;99.90;;;;;;5092261;28;20372;-76
2022/03/20 01:22:15;;;;;;;;;;;1.70;99.90;;;;;;5091092;28;20319;-76
2022/03/20 01:24:42;;;;;;;;;;;1.70;99.90;;;;;;5092121;28;20374;-76
2022/03/20 01:27:12;;;;;;;;;;;1.70;99.90;;;;;;5091655;28;19924;-76
2022/03/20 01:29:39;;;;;;;;;;;1.70;99.90;;;;;;5093079;28;19928;-76
2022/03/20 01:32:06;;;;;;;;;;;1.70;99.90;;;;;;5074768;28;20006;-76
2022/03/20 01:34:34;;;;;;;;;;;1.70;99.90;;;;;;5084652;28;19977;-76
2022/03/20 01:37:00;;;;;;;;;;;1.70;99.90;;;;;;5099616;28;19926;-76
2022/03/20 01:39:27;;;;;;;;;;;1.60;99.90;;;;;;5100758;28;19924;-76
2022/03/20 01:41:55;;;;;;;;;;;1.60;99.90;;;;;;5095987;28;19931;-76
2022/03/20 01:44:28;;;;;;;;;;;1.70;99.90;;;;;;5102236;28;20019;-76
2022/03/20 01:46:55;;;;;;;;;;;1.70;99.90;;;;;;5112417;28;20047;-76
2022/03/20 01:49:22;;;;;;;;;;;1.70;99.90;;;;;;5104844;28;20707;-76
2022/03/20 01:54:34;;;;;;;;;;;1.80;99.90;;;;;;5111961;28;19963;-76
2022/03/20 01:57:00;;;;;;;;;;;1.80;99.90;;;;;;5098589;28;19924;-75
2022/03/20 01:59:27;;;;;;;;;;;1.80;99.90;;;;;;5105977;28;20353;-75
2022/03/20 02:01:54;;;;;;;;;;;1.70;99.90;;;;;;5096772;28;19986;-75
2022/03/20 02:04:21;;;;;;;;;;;1.70;99.90;;;;;;5100233;28;20011;-75
2022/03/20 02:06:51;;;;;;;;;;;1.70;99.90;;;;;;5084226;28;20357;-74
2022/03/20 02:09:18;;;;;;;;;;;1.60;99.90;;;;;;5112534;28;20018;-75
2022/03/20 02:11:47;;;;;;;;;;;1.60;99.90;;;;;;5096948;28;19924;-75
2022/03/20 02:14:14;;;;;;;;;;;1.50;99.90;;;;;;5093755;28;20007;-76
2022/03/20 02:16:41;;;;;;;;;;;1.40;99.90;;;;;;5103636;28;19966;-75
2022/03/20 02:19:08;;;;;;;;;;;1.40;99.90;;;;;;5102659;28;19924;-76
2022/03/20 02:21:44;;;;;;;;;;;1.40;99.90;;;;;;5097190;28;20409;-75
2022/03/20 02:24:32;;;;;;;;;;;1.40;99.90;;;;;;5096428;28;19942;-75
2022/03/20 02:27:16;;;;;;;;;;;1.30;99.90;;;;;;5078682;28;20020;-74
2022/03/20 02:29:44;;;;;;;;;;;1.20;99.90;;;;;;5095533;28;19928;-75
2022/03/20 02:32:12;;;;;;;;;;;1.20;99.90;;;;;;5096619;28;19932;-75
2022/03/20 02:34:45;;;;;;;;;;;1.20;99.90;;;;;;5104691;28;19923;-76
2022/03/20 02:37:12;;;;;;;;;;;1.20;99.90;;;;;;5097600;28;19924;-75
2022/03/20 02:39:42;;;;;;;;;;;1.10;99.90;;;;;;5110210;28;20019;-75
2022/03/20 02:42:13;;;;;;;;;;;1.10;99.90;;;;;;5095960;28;19956;-76
2022/03/20 02:44:49;;;;;;;;;;;1.00;99.90;;;;;;5097427;28;19924;-75
2022/03/20 02:47:20;;;;;;;;;;;1.00;99.90;;;;;;5095623;28;19928;-75
2022/03/20 02:50:06;;;;;;;;;;;1.00;99.90;;;;;;5103498;28;19950;-76
2022/03/20 02:52:39;;;;;;;;;;;0.90;99.90;;;;;;5096940;28;19924;-77
2022/03/20 02:55:08;;;;;;;;;;;0.90;99.90;;;;;;5110695;28;19979;-75
2022/03/20 02:57:35;;;;;;;;;;;0.80;99.90;;;;;;5095161;28;19936;-76
2022/03/20 03:00:05;;;;;;;;;;;0.70;99.90;;;;;;5096564;28;20007;-75
2022/03/20 03:02:36;;;;;;;;;;;0.70;99.90;;;;;;5092839;28;20327;-75
2022/03/20 03:05:03;;;;;;;;;;;0.60;99.90;;;;;;5092631;28;20445;-76
2022/03/20 03:07:30;;;;;;;;;;;0.60;99.90;;;;;;5091842;28;20084;-75
2022/03/20 03:12:44;;;;;;;;;;;0.60;99.90;;;;;;5094239;28;20297;-76
2022/03/20 03:15:19;;;;;;;;;;;0.60;99.90;;;;;;5093501;28;19924;-76
2022/03/20 03:17:49;;;;;;;;;;;0.60;99.90;;;;;;5093136;28;19924;-75
2022/03/20 03:20:19;;;;;;;;;;;0.50;99.90;;;;;;5095234;28;19924;-75
2022/03/20 03:22:46;;;;;;;;;;;0.50;99.90;;;;;;5095260;28;19935;-76
2022/03/20 03:25:13;;;;;;;;;;;0.50;99.90;;;;;;5077324;28;19928;-76
2022/03/20 03:27:40;;;;;;;;;;;0.40;99.90;;;;;;5098703;28;19930;-76
2022/03/20 03:30:07;;;;;;;;;;;0.50;99.90;;;;;;5115426;28;20319;-75
2022/03/20 03:32:36;;;;;;;;;;;0.60;99.90;;;;;;5096541;28;19924;-75
2022/03/20 03:37:49;;;;;;;;;;;0.70;99.90;;;;;;5093896;28;20328;-75
2022/03/20 03:40:15;;;;;;;;;;;0.70;99.90;;;;;;5096581;28;19924;-75
2022/03/20 03:42:42;;;;;;;;;;;0.70;99.90;;;;;;5098394;28;20022;-75
2022/03/20 03:45:09;;;;;;;;;;;0.70;99.90;;;;;;5100134;28;19936;-75
2022/03/20 03:47:36;;;;;;;;;;;0.70;99.90;;;;;;5093836;28;20680;-75
2022/03/20 03:50:03;;;;;;;;;;;0.70;99.90;;;;;;5101864;28;19963;-75
2022/03/20 03:52:32;;;;;;;;;;;0.70;99.90;;;;;;5111723;28;19924;-75
2022/03/20 03:55:02;;;;;;;;;;;0.70;99.90;;;;;;5094917;28;19976;-75
2022/03/20 03:57:31;;;;;;;;;;;0.70;99.90;;;;;;5106111;28;20467;-75
2022/03/20 03:59:58;;;;;;;;;;;0.70;99.90;;;;;;5094208;28;19938;-75
2022/03/20 04:02:24;;;;;;;;;;;0.60;99.90;;;;;;5110204;28;20010;-75
2022/03/20 04:04:51;;;;;;;;;;;0.70;99.90;;;;;;5099141;28;19931;-75
2022/03/20 04:07:21;;;;;;;;;;;0.70;99.90;;;;;;5078079;28;20426;-75
2022/03/20 04:09:48;;;;;;;;;;;0.80;99.90;;;;;;5105894;28;19924;-75
2022/03/20 04:12:15;;;;;;;;;;;0.90;99.90;;;;;;5097700;28;20486;-75
2022/03/20 04:14:42;;;;;;;;;;;0.90;99.90;;;;;;5094999;28;19931;-75
2022/03/20 04:17:09;;;;;;;;;;;1.10;99.90;;;;;;5102483;28;20007;-75
2022/03/20 04:19:36;;;;;;;;;;;1.10;99.90;;;;;;5104162;28;20414;-75
2022/03/20 04:22:03;;;;;;;;;;;1.10;99.90;;;;;;5098140;28;20508;-76
2022/03/20 04:24:30;;;;;;;;;;;1.20;99.90;;;;;;5095192;28;20026;-75
2022/03/20 04:26:58;;;;;;;;;;;1.30;99.90;;;;;;5112172;28;20010;-75
2022/03/20 04:29:27;;;;;;;;;;;1.30;99.90;;;;;;5101284;28;19993;-75
2022/03/20 04:31:54;;;;;;;;;;;1.30;99.90;;;;;;5094703;28;19924;-75
2022/03/20 04:34:22;;;;;;;;;;;1.40;99.90;;;;;;5104838;28;20441;-75
2022/03/20 04:36:50;;;;;;;;;;;1.40;99.90;;;;;;5105876;28;19924;-75
2022/03/20 04:39:17;;;;;;;;;;;1.40;99.90;;;;;;5105333;28;19928;-75
2022/03/20 04:41:46;;;;;;;;;;;1.30;99.90;;;;;;5112183;28;19927;-75
2022/03/20 04:44:13;;;;;;;;;;;1.30;99.90;;;;;;5113556;28;19959;-75
2022/03/20 04:46:42;;;;;;;;;;;1.20;99.90;;;;;;5097140;28;19924;-75
2022/03/20 05:00:10;;;;;;;;;;;1.00;99.90;;;;;;5093475;28;19928;-75
2022/03/20 05:02:37;;;;;;;;;;;0.90;99.90;;;;;;5093148;28;20007;-75
2022/03/20 05:05:04;;;;;;;;;;;1.00;99.90;;;;;;5093790;28;20394;-75
2022/03/20 05:07:32;;;;;;;;;;;1.00;99.90;;;;;;5092735;28;19931;-74
2022/03/20 05:15:30;;;;;;;;;;;1.20;99.90;;;;;;5085255;28;19924;-75
2022/03/20 05:17:57;;;;;;;;;;;1.40;99.90;;;;;;5091207;28;19924;-75
2022/03/20 05:20:25;;;;;;;;;;;1.50;99.90;;;;;;5090557;28;20014;-75
2022/03/20 05:22:52;;;;;;;;;;;1.60;99.90;;;;;;5099441;28;19924;-76
2022/03/20 05:25:18;;;;;;;;;;;1.60;99.90;;;;;;5110636;28;19946;-75
2022/03/20 05:27:48;;;;;;;;;;;1.70;99.90;;;;;;5111680;28;19924;-75
2022/03/20 05:30:15;;;;;;;;;;;1.80;99.90;;;;;;5113051;28;20305;-75
2022/03/20 05:32:42;;;;;;;;;;;1.80;99.90;;;;;;5100628;28;19924;-75
2022/03/20 05:35:09;;;;;;;;;;;1.90;99.90;;;;;;5092666;28;20068;-75
2022/03/20 05:37:43;;;;;;;;;;;1.90;99.90;;;;;;5094844;28;19924;-75
2022/03/20 05:40:10;;;;;;;;;;;1.90;99.90;;;;;;5105072;28;20002;-75
2022/03/20 05:42:37;;;;;;;;;;;2.00;99.90;;;;;;5075334;28;20018;-75
2022/03/20 05:45:04;;;;;;;;;;;2.00;99.90;;;;;;5093230;28;19928;-76
2022/03/20 05:47:31;;;;;;;;;;;2.00;99.90;;;;;;5092304;28;19972;-75
2022/03/20 05:50:02;;;;;;;;;;;2.10;99.90;;;;;;5092520;28;20011;-75
2022/03/20 05:52:32;;;;;;;;;;;2.10;99.90;;;;;;5101787;28;19924;-74
2022/03/20 05:54:59;;;;;;;;;;;2.10;99.90;;;;;;5102135;28;19963;-75
2022/03/20 06:00:20;;;;;;;;;;;2.20;99.90;;;;;;5104291;28;19923;-74
2022/03/20 06:02:46;;;;;;;;;;;2.20;99.90;;;;;;5105452;28;20453;-74
2022/03/20 06:05:13;;;;;;;;;;;2.20;99.90;;;;;;5093340;28;20347;-75
2022/03/20 06:07:44;;;;;;;;;;;2.20;99.90;;;;;;5092647;28;19925;-75
2022/03/20 06:10:11;;;;;;;;;;;2.30;99.90;;;;;;5102430;28;20008;-75
2022/03/20 06:12:38;;;;;;;;;;;2.30;99.90;;;;;;5092729;28;20397;-75
2022/03/20 06:15:08;;;;;;;;;;;2.40;99.90;;;;;;5093717;28;19924;-75
2022/03/20 06:17:45;;;;;;;;;;;2.50;99.90;;;;;;5091916;28;20003;-75
2022/03/20 06:20:12;;;;;;;;;;;2.60;99.90;;;;;;5092951;28;20507;-76
2022/03/20 06:22:39;;;;;;;;;;;2.60;99.90;;;;;;5092363;28;19930;-76
2022/03/20 06:25:08;;;;;;;;;;;2.70;99.90;;;;;;5102230;28;19975;-76
2022/03/20 06:27:40;;;;;;;;;;;2.80;99.90;;;;;;5101720;28;19999;-75
2022/03/20 06:30:08;;;;;;;;;;;2.90;99.90;;;;;;5094444;28;19924;-75
2022/03/20 06:32:35;;;;;;;;;;;2.90;99.90;;;;;;5078516;28;20024;-75
2022/03/20 06:35:05;;;;;;;;;;;3.00;99.90;;;;;;5111764;28;20455;-76
2022/03/20 06:37:36;;;;;;;;;;;3.10;99.90;;;;;;5101287;28;19927;-76
2022/03/20 06:40:02;;;;;;;;;;;3.20;99.90;;;;;;5098402;28;20539;-77
2022/03/20 06:42:30;;;;;;;;;;;3.30;99.90;;;;;;5081422;28;19969;-76
2022/03/20 06:45:05;;;;;;;;;;;3.40;99.90;;;;;;5096097;28;20011;-76
2022/03/20 06:47:32;;;;;;;;;;;3.50;99.90;;;;;;5094813;28;20509;-76
2022/03/20 06:50:01;;;;;;;;;;;3.70;99.90;;;;;;5085935;28;20015;-76
2022/03/20 06:52:28;;;;;;;;;;;3.80;99.90;;;;;;5095148;28;19924;-76
2022/03/20 06:55:02;;;;;;;;;;;4.00;99.90;;;;;;5095359;28;19924;-76
2022/03/20 06:57:30;;;;;;;;;;;4.00;99.90;;;;;;5095325;28;19974;-76
2022/03/20 06:59:58;;;;;;;;;;;4.00;99.90;;;;;;5102531;28;19924;-76
2022/03/20 07:02:26;;;;;;;;;;;4.00;99.90;;;;;;5095984;28;19969;-76
2022/03/20 07:04:53;;;;;;;;;;;4.00;99.90;;;;;;5104217;28;20463;-77
2022/03/20 07:07:21;;;;;;;;;;;4.10;99.90;;;;;;5106754;28;19963;-77
2022/03/20 07:09:50;;;;;;;;;;;4.20;99.90;;;;;;5111081;28;20359;-77
2022/03/20 07:12:17;;;;;;;;;;;4.40;99.90;;;;;;5095342;28;19924;-77
2022/03/20 07:14:44;;;;;;;;;;;4.60;99.90;;;;;;5092509;28;19975;-77
2022/03/20 07:17:16;;;;;;;;;;;4.80;99.90;;;;;;5095026;28;19931;-77
2022/03/20 07:19:45;;;;;;;;;;;5.10;99.90;;;;;;5095001;28;19931;-77
2022/03/20 07:22:13;;;;;;;;;;;5.30;99.90;;;;;;5095187;28;19924;-77
2022/03/20 07:24:44;;;;;;;;;;;5.40;99.90;;;;;;5095216;28;19931;-77
2022/03/20 07:29:57;;;;;;;;;;;5.60;99.90;;;;;;5095558;28;19924;-77
2022/03/20 07:32:24;;;;;;;;;;;5.70;99.90;;;;;;5094906;28;20539;-77
2022/03/20 07:34:50;;;;;;;;;;;5.80;99.90;;;;;;5102783;28;19967;-77
2022/03/20 07:37:18;;;;;;;;;;;5.90;99.90;;;;;;5095436;28;19931;-78
2022/03/20 07:39:50;;;;;;;;;;;6.00;99.90;;;;;;5094868;28;20015;-77
2022/03/20 07:42:23;;;;;;;;;;;6.10;99.90;;;;;;5095310;28;19969;-77
2022/03/20 07:44:50;;;;;;;;;;;6.20;99.90;;;;;;5093950;28;19981;-77
2022/03/20 07:47:21;;;;;;;;;;;6.40;99.90;;;;;;5094193;28;20067;-77
2022/03/20 07:49:49;;;;;;;;;;;6.40;99.90;;;;;;5095500;28;20354;-77
2022/03/20 07:52:16;;;;;;;;;;;6.50;99.90;;;;;;5089284;28;19946;-78
2022/03/20 07:54:45;;;;;;;;;;;7.00;99.90;;;;;;5096596;28;19977;-78
2022/03/20 07:57:12;;;;;;;;;;;7.50;99.90;;;;;;5094392;28;20359;-78
2022/03/20 07:59:39;;;;;;;;;;;8.20;99.90;;;;;;5094650;28;19924;-78
2022/03/20 08:02:06;;;;;;;;;;;8.60;99.90;;;;;;5091655;28;20282;-78
2022/03/20 08:04:33;;;;;;;;;;;9.00;99.90;;;;;;5094528;28;20368;-79
2022/03/20 08:07:00;;;;;;;;;;;9.30;99.90;;;;;;5093759;28;19975;-78
2022/03/20 08:09:28;;;;;;;;;;;9.30;99.90;;;;;;5093940;28;19924;-78
2022/03/20 08:11:56;;;;;;;;;;;9.70;99.90;;;;;;5108511;28;19924;-78
2022/03/20 08:14:26;;;;;;;;;;;9.70;99.90;;;;;;5108843;28;19930;-77
2022/03/20 08:16:53;;;;;;;;;;;9.40;99.90;;;;;;5101113;28;19993;-77
2022/03/20 08:19:23;;;;;;;;;;;9.00;99.90;;;;;;5079201;28;19930;-76
2022/03/20 08:21:50;;;;;;;;;;;8.60;99.90;;;;;;5105136;28;19931;-77
2022/03/20 08:24:17;;;;;;;;;;;8.40;99.90;;;;;;5093948;28;20544;-78
2022/03/20 08:26:44;;;;;;;;;;;8.60;99.90;;;;;;5093558;28;19974;-77
2022/03/20 08:29:14;;;;;;;;;;;9.20;99.90;;;;;;5095246;28;19928;-78
2022/03/20 08:31:47;;;;;;;;;;;9.90;99.90;;;;;;5106761;28;19943;-78
2022/03/20 08:34:15;;;;;;;;;;;10.30;99.90;;;;;;5093276;28;19928;-75
2022/03/20 08:36:42;;;;;;;;;;;10.70;99.90;;;;;;5094666;28;19923;-76
2022/03/20 08:39:13;;;;;;;;;;;11.10;99.60;;;;;;5101888;28;21438;-75
2022/03/20 08:41:40;;;;;;;;;;;11.10;99.00;;;;;;5096179;28;19981;-75
2022/03/20 08:44:08;;;;;;;;;;;11.20;98.90;;;;;;5090589;28;20378;-75
2022/03/20 08:46:35;;;;;;;;;;;11.30;98.80;;;;;;5083665;28;19928;-75
2022/03/20 08:49:09;;;;;;;;;;;11.30;99.10;;;;;;5103672;28;20317;-76
2022/03/20 08:51:38;;;;;;;;;;;11.70;98.80;;;;;;5106269;28;19925;-75
2022/03/20 08:54:08;;;;;;;;;;;12.20;99.40;;;;;;5092952;28;19969;-76
2022/03/20 08:56:35;;;;;;;;;;;12.60;98.00;;;;;;5092564;28;19927;-75
2022/03/20 08:59:02;;;;;;;;;;;12.40;97.70;;;;;;5097759;28;19974;-76
2022/03/20 09:01:29;;;;;;;;;;;12.70;97.30;;;;;;5106260;28;19924;-76
2022/03/20 09:03:56;;;;;;;;;;;12.60;97.30;;;;;;5106722;28;19989;-76
2022/03/20 09:06:23;;;;;;;;;;;12.50;97.70;;;;;;5101062;28;19934;-76
2022/03/20 09:08:51;;;;;;;;;;;12.30;97.30;;;;;;5092977;28;19924;-76
2022/03/20 09:11:18;;;;;;;;;;;12.10;97.80;;;;;;5092485;28;20014;-76
2022/03/20 09:13:47;;;;;;;;;;;12.30;98.40;;;;;;5101272;28;19962;-76
2022/03/20 09:19:00;;;;;;;;;;;12.20;98.50;;;;;;5109604;28;19928;-76
2022/03/20 09:21:28;;;;;;;;;;;12.60;98.00;;;;;;5104811;28;19924;-76
2022/03/20 09:23:55;;;;;;;;;;;12.70;97.70;;;;;;5092040;28;19928;-77
2022/03/20 09:26:21;;;;;;;;;;;12.40;97.40;;;;;;5091415;28;20019;-76
2022/03/20 09:28:48;;;;;;;;;;;12.90;97.90;;;;;;5091888;28;19924;-76
2022/03/20 09:31:15;;;;;;;;;;;13.50;97.20;;;;;;5093368;28;19928;-77
2022/03/20 09:33:42;;;;;;;;;;;14.10;96.90;;;;;;5107301;28;19924;-76
2022/03/20 09:36:12;;;;;;;;;;;14.60;96.10;;;;;;5073795;28;19924;-76
2022/03/20 09:38:39;;;;;;;;;;;14.70;95.90;;;;;;5090573;28;19938;-75
2022/03/20 09:41:07;;;;;;;;;;;15.20;96.90;;;;;;5098278;28;19930;-77
2022/03/20 09:43:38;;;;;;;;;;;16.20;95.60;;;;;;5107603;28;20841;-75
2022/03/20 09:46:09;;;;;;;;;;;16.90;95.20;;;;;;5092130;28;19924;-75
2022/03/20 09:48:36;;;;;;;;;;;17.10;94.60;;;;;;5103911;28;20282;-75
2022/03/20 09:51:05;;;;;;;;;;;17.60;94.80;;;;;;5107455;28;20426;-75
2022/03/20 09:53:33;;;;;;;;;;;17.10;93.70;;;;;;5075204;28;19924;-74
2022/03/20 09:56:05;;;;;;;;;;;16.70;93.90;;;;;;5101025;28;19930;-75
2022/03/20 09:58:32;;;;;;;;;;;16.20;94.40;;;;;;5097626;28;19924;-76
2022/03/20 10:01:00;;;;;;;;;;;15.20;95.10;;;;;;5092009;28;20310;-76
2022/03/20 10:03:27;;;;;;;;;;;14.50;95.60;;;;;;5091772;28;19924;-75
2022/03/20 10:06:16;;;;;;;;;;;14.00;96.10;;;;;;5095775;28;19959;-75
2022/03/20 10:08:55;;;;;;;;;;;13.70;96.30;;;;;;5095579;28;19958;-76
2022/03/20 10:11:22;;;;;;;;;;;13.70;96.90;;;;;;5095640;28;19924;-75
2022/03/20 10:14:07;;;;;;;;;;;14.10;97.10;;;;;;5095548;28;20348;-76
2022/03/20 10:16:38;;;;;;;;;;;14.30;97.30;;;;;;5078148;28;20386;-75
2022/03/20 10:19:23;;;;;;;;;;;14.50;97.00;;;;;;5105328;28;19928;-76
2022/03/20 10:21:59;;;;;;;;;;;14.20;97.00;;;;;;5108394;28;19959;-76
2022/03/20 10:24:26;;;;;;;;;;;14.50;97.50;;;;;;5096013;28;19931;-76
2022/03/20 10:26:59;;;;;;;;;;;14.50;97.40;;;;;;5095746;28;19963;-77
2022/03/20 10:29:30;;;;;;;;;;;14.50;97.70;;;;;;5101178;28;20394;-76
2022/03/20 10:32:00;;;;;;;;;;;14.50;97.90;;;;;;5100295;28;20015;-77
2022/03/20 10:34:27;;;;;;;;;;;14.70;97.90;;;;;;5095251;28;20034;-76
2022/03/20 10:36:54;;;;;;;;;;;14.50;97.70;;;;;;5077333;28;19956;-76
2022/03/20 10:39:26;;;;;;;;;;;14.90;98.50;;;;;;5095207;28;19931;-76
2022/03/20 10:41:56;;;;;;;;;;;15.50;98.00;;;;;;5103201;28;20030;-76
2022/03/20 10:44:31;;;;;;;;;;;15.40;97.60;;;;;;5095589;28;20386;-76
2022/03/20 10:47:05;;;;;;;;;;;15.90;97.70;;;;;;5092776;28;19982;-76
2022/03/20 10:49:32;;;;;;;;;;;15.70;97.40;;;;;;5096426;28;19924;-77
2022/03/20 10:52:06;;;;;;;;;;;15.40;97.50;;;;;;5109232;28;19955;-76
2022/03/20 10:54:46;;;;;;;;;;;15.10;98.20;;;;;;5092370;28;19932;-78
2022/03/20 10:57:13;;;;;;;;;;;14.20;98.30;;;;;;5093212;28;20007;-76
2022/03/20 10:59:41;;;;;;;;;;;13.90;99.00;;;;;;5094135;28;19925;-75
2022/03/20 11:02:23;;;;;;;;;;;13.70;99.30;;;;;;5095099;28;20450;-76
2022/03/20 11:04:51;;;;;;;;;;;13.90;99.90;;;;;;5095076;28;19930;-76
2022/03/20 11:07:18;;;;;;;;;;;14.50;99.90;;;;;;5095016;28;20014;-76
2022/03/20 11:09:52;;;;;;;;;;;15.00;99.70;;;;;;5077344;28;20011;-77
2022/03/20 11:12:29;;;;;;;;;;;15.30;99.50;;;;;;5098778;28;19923;-77
2022/03/20 11:14:58;;;;;;;;;;;15.20;99.10;;;;;;5105389;28;20019;-77
2022/03/20 11:17:35;;;;;;;;;;;15.30;99.70;;;;;;5113169;28;19955;-76
2022/03/20 11:20:02;;;;;;;;;;;15.90;99.70;;;;;;5101896;28;20023;-76
2022/03/20 11:22:29;;;;;;;;;;;16.40;99.00;;;;;;5095525;28;19924;-76
2022/03/20 11:24:56;;;;;;;;;;;15.70;99.30;;;;;;5093694;28;19941;-76
2022/03/20 11:27:26;;;;;;;;;;;14.90;99.50;;;;;;5094129;28;19924;-76
2022/03/20 11:29:56;;;;;;;;;;;14.10;99.90;;;;;;5094686;28;19924;-76
2022/03/20 11:32:23;;;;;;;;;;;13.60;99.90;;;;;;5095427;28;20290;-76
2022/03/20 11:34:51;;;;;;;;;;;13.40;99.90;;;;;;5095542;28;20349;-76
2022/03/20 11:37:18;;;;;;;;;;;13.40;99.90;;;;;;5094576;28;19946;-77
2022/03/20 11:40:03;;;;;;;;;;;13.70;99.90;;;;;;5090938;28;20012;-76
2022/03/20 11:42:33;;;;;;;;;;;13.80;99.90;;;;;;5096790;28;19924;-77
2022/03/20 11:45:00;;;;;;;;;;;13.80;99.90;;;;;;5108350;28;19959;-77
2022/03/20 11:47:30;;;;;;;;;;;13.90;99.90;;;;;;5094885;28;19924;-76
2022/03/20 11:50:15;;;;;;;;;;;13.90;99.90;;;;;;5101779;28;19959;-76
2022/03/20 11:52:45;;;;;;;;;;;13.80;99.90;;;;;;5094242;28;20007;-77
2022/03/20 11:55:25;;;;;;;;;;;14.10;99.90;;;;;;5093529;28;19969;-76
2022/03/20 11:57:52;;;;;;;;;;;13.80;99.90;;;;;;5093764;28;19924;-76
2022/03/20 12:00:23;;;;;;;;;;;13.90;99.90;;;;;;5076130;28;19924;-76
2022/03/20 12:02:56;;;;;;;;;;;14.10;99.90;;;;;;5111800;28;19974;-77
2022/03/20 12:05:23;;;;;;;;;;;14.40;99.90;;;;;;5111295;28;20465;-77
2022/03/20 12:07:55;;;;;;;;;;;14.20;99.90;;;;;;5111035;28;19930;-77
2022/03/20 12:10:27;;;;;;;;;;;14.20;99.90;;;;;;5095768;28;19969;-77
2022/03/20 12:13:14;;;;;;;;;;;14.40;99.90;;;;;;5089853;28;19959;-77
2022/03/20 12:15:42;;;;;;;;;;;14.60;99.90;;;;;;5094024;28;19930;-77
2022/03/20 12:18:10;;;;;;;;;;;14.90;99.90;;;;;;5093164;28;19963;-77
2022/03/20 12:20:53;;;;;;;;;;;15.40;99.90;;;;;;5094147;28;19970;-78
2022/03/20 12:23:38;;;;;;;;;;;16.20;99.90;;;;;;5094294;28;20353;-77
2022/03/20 12:26:24;;;;;;;;;;;17.40;99.90;;;;;;5092084;28;19927;-77
2022/03/20 12:28:50;;;;;;;;;;;17.80;99.70;;;;;;5107421;28;20019;-78
2022/03/20 12:31:25;;;;;;;;;;;17.70;99.60;;;;;;5110241;28;19970;-77
2022/03/20 12:34:11;;;;;;;;;;;17.60;99.40;;;;;;5113439;28;19928;-77
2022/03/20 12:36:38;;;;;;;;;;;16.80;99.90;;;;;;5092715;28;19967;-75
2022/03/20 12:39:04;;;;;;;;;;;16.40;99.90;;;;;;5093071;28;20034;-78
2022/03/20 12:41:31;;;;;;;;;;;16.50;99.90;;;;;;5093091;28;20354;-77
2022/03/20 12:43:59;;;;;;;;;;;16.70;99.90;;;;;;5093128;28;19967;-79
2022/03/20 12:46:26;;;;;;;;;;;16.90;99.90;;;;;;5076953;28;19947;-77
2022/03/20 12:48:54;;;;;;;;;;;17.00;99.90;;;;;;5075309;28;19924;-78
2022/03/20 12:51:29;;;;;;;;;;;17.00;99.90;;;;;;5075236;28;19924;-77
2022/03/20 12:53:57;;;;;;;;;;;16.60;99.90;;;;;;5102532;28;20024;-77
2022/03/20 12:56:28;;;;;;;;;;;16.90;99.90;;;;;;5077061;28;19946;-77
2022/03/20 12:58:55;;;;;;;;;;;16.90;99.70;;;;;;5093202;28;20386;-77
2022/03/20 13:01:21;;;;;;;;;;;16.90;99.70;;;;;;5093116;28;19934;-78
2022/03/20 13:03:48;;;;;;;;;;;16.80;99.80;;;;;;5093487;28;19931;-77
2022/03/20 13:06:17;;;;;;;;;;;16.70;99.90;;;;;;5101878;28;19931;-77
2022/03/20 13:08:45;;;;;;;;;;;17.00;99.90;;;;;;5092863;28;19924;-77
2022/03/20 13:14:05;;;;;;;;;;;17.40;99.60;;;;;;5093843;28;19931;-76
2022/03/20 13:16:33;;;;;;;;;;;17.50;99.50;;;;;;5075322;28;19924;-76
2022/03/20 13:19:01;;;;;;;;;;;17.30;99.30;;;;;;5092839;28;19924;-76
2022/03/20 13:21:29;;;;;;;;;;;17.10;98.70;;;;;;5111368;28;19923;-77
2022/03/20 13:23:56;;;;;;;;;;;17.20;99.60;;;;;;5083380;28;20046;-77
2022/03/20 13:26:23;;;;;;;;;;;17.40;99.30;;;;;;5094928;28;20014;-76
2022/03/20 13:28:49;;;;;;;;;;;17.40;99.50;;;;;;5105673;28;20049;-76
2022/03/20 13:31:20;;;;;;;;;;;17.40;98.80;;;;;;5092466;28;20446;-76
2022/03/20 13:33:51;;;;;;;;;;;17.00;98.90;;;;;;5092236;28;20387;-76
2022/03/20 13:36:23;;;;;;;;;;;17.10;99.00;;;;;;5092122;28;19924;-77
2022/03/20 13:38:54;;;;;;;;;;;17.20;99.10;;;;;;5096485;28;19924;-76
2022/03/20 13:41:26;;;;;;;;;;;17.60;99.20;;;;;;5109419;27;19931;-77
2022/03/20 13:44:01;;;;;;;;;;;17.70;99.00;;;;;;5112730;28;19959;-77
2022/03/20 13:46:36;;;;;;;;;;;17.70;99.20;;;;;;5098444;28;19977;-76
2022/03/20 13:49:06;;;;;;;;;;;18.10;99.40;;;;;;5098098;28;20519;-76
2022/03/20 13:51:35;;;;;;;;;;;18.70;98.40;;;;;;5099151;28;19931;-77
2022/03/20 13:54:12;;;;;;;;;;;19.00;98.50;;;;;;5099467;28;20359;-77
2022/03/20 13:56:43;;;;;;;;;;;19.20;98.20;;;;;;5099422;28;19924;-77
2022/03/20 13:59:12;;;;;;;;;;;19.00;98.20;;;;;;5099503;28;20509;-77
2022/03/20 14:01:43;;;;;;;;;;;18.40;98.10;;;;;;5113702;28;19936;-78
2022/03/20 14:04:10;;;;;;;;;;;18.20;98.30;;;;;;5113951;28;20552;-77
2022/03/20 14:06:38;;;;;;;;;;;18.40;98.70;;;;;;5107064;28;19928;-76
2022/03/20 14:09:05;;;;;;;;;;;18.70;98.30;;;;;;5117972;28;19950;-77
2022/03/20 14:11:32;;;;;;;;;;;19.00;98.10;;;;;;5119532;28;19989;-77
2022/03/20 14:13:59;;;;;;;;;;;19.10;98.00;;;;;;5109911;28;19963;-77
2022/03/20 14:16:28;;;;;;;;;;;19.20;97.80;;;;;;5118952;28;20393;-77
2022/03/20 14:18:56;;;;;;;;;;;18.90;97.80;;;;;;5101813;28;19925;-77
2022/03/20 14:21:25;;;;;;;;;;;18.90;98.00;;;;;;5099677;28;19928;-77
2022/03/20 14:23:58;;;;;;;;;;;19.60;98.10;;;;;;5098600;28;20450;-75
2022/03/20 14:26:29;;;;;;;;;;;19.70;97.40;;;;;;5098969;28;20585;-75
2022/03/20 14:29:02;;;;;;;;;;;19.30;97.40;;;;;;5098150;28;19928;-77
2022/03/20 14:40:13;;;;;;;;;;;19.20;96.80;;;;;;5101423;28;20426;-76
2022/03/20 14:42:41;;;;;;;;;;;19.00;97.30;;;;;;5100155;28;19924;-76
2022/03/20 14:45:08;;;;;;;;;;;19.50;97.20;;;;;;5108311;28;20080;-77
2022/03/20 14:47:40;;;;;;;;;;;19.80;97.50;;;;;;5104309;28;19939;-77
2022/03/20 14:50:07;;;;;;;;;;;20.20;96.90;;;;;;5096028;28;19927;-77
2022/03/20 14:52:34;;;;;;;;;;;20.10;96.80;;;;;;5096417;28;19985;-77
2022/03/20 14:55:05;;;;;;;;;;;20.60;96.80;;;;;;5108139;28;19967;-76
2022/03/20 14:57:32;;;;;;;;;;;21.00;96.50;;;;;;5086527;28;19923;-76
2022/03/20 14:59:59;;;;;;;;;;;20.70;96.50;;;;;;5104706;28;20058;-77
2022/03/20 15:02:26;;;;;;;;;;;20.70;96.30;;;;;;5095581;28;20011;-76
2022/03/20 15:04:53;;;;;;;;;;;20.70;96.10;;;;;;5095736;28;19973;-76
2022/03/20 15:07:19;;;;;;;;;;;20.90;96.40;;;;;;5111566;28;20003;-75
2022/03/20 15:12:31;;;;;;;;;;;21.40;95.90;;;;;;5104709;28;20011;-77
2022/03/20 15:15:00;;;;;;;;;;;21.40;95.70;;;;;;5102616;28;19924;-76
2022/03/20 15:17:26;;;;;;;;;;;21.20;95.60;;;;;;5095171;28;19974;-76
2022/03/20 15:19:53;;;;;;;;;;;21.20;95.60;;;;;;5095044;28;19924;-76
2022/03/20 15:22:21;;;;;;;;;;;21.00;95.20;;;;;;5108735;28;20019;-77